Terminal Aerodrome Forecast
Issued by NWS

Current Version | Previous Version | Text Only | Print | Product List | Glossary Off
Versions: 1 2 3 4 5 6 7 8 9 10 11 12 13 14 15 16 17 18 19 20 21 22 23 24

609
FTUS41 KPBZ 291134
TAFMGW
TAF
KMGW 291134Z 2912/3012 20004KT P6SM -SHRA OVC100 WS020/25050KT
     FM291500 21006KT P6SM VCTS OVC040CB
     FM291800 29004KT 4SM -TSRA OVC045CB
     FM292200 13003KT P6SM BKN250=

USA.gov is the U.S. government's official web portal to all federal, state and local government web resources and services.